Time;durP1;ratioP1;P1;durP2;ratioP2;P2;SDS_P1;SDS_P2;PMS_P1;PMS_P2;Temp;Humidity;BMP_temperature;BMP_pressure;BME280_temperature;BME280_humidity;BME280_pressure;Samples;Min_cycle;Max_cycle;Signal;HPM_P1;HPM_P2
2022/06/04 00:02:03;;;;;;;15.45;8.40;;;11.20;99.90;;;;;;4950032;28;20474;-41
2022/06/04 00:04:28;;;;;;;16.70;8.88;;;11.10;99.90;;;;;;4949903;28;20051;-41
2022/06/04 00:06:54;;;;;;;15.55;8.30;;;11.10;99.90;;;;;;4935477;28;20357;-41
2022/06/04 00:09:22;;;;;;;13.23;8.27;;;11.10;99.90;;;;;;4947808;28;20058;-42
2022/06/04 00:17:16;;;;;;;14.82;7.93;;;11.00;99.90;;;;;;4933198;28;20117;-42
2022/06/04 00:19:42;;;;;;;14.93;7.57;;;11.00;99.90;;;;;;4950134;28;20055;-41
2022/06/04 00:22:08;;;;;;;16.88;6.95;;;11.00;99.90;;;;;;4949351;28;20055;-42
2022/06/04 00:24:34;;;;;;;13.23;6.97;;;11.00;99.90;;;;;;4949899;28;20135;-41
2022/06/04 00:27:00;;;;;;;11.77;6.95;;;11.00;99.90;;;;;;4934983;28;20189;-41
2022/06/04 00:29:25;;;;;;;15.00;6.88;;;10.90;99.90;;;;;;4948916;28;20122;-41
2022/06/04 00:31:52;;;;;;;17.55;7.30;;;11.00;99.90;;;;;;4950192;28;20047;-41
2022/06/04 00:34:17;;;;;;;15.15;7.07;;;10.90;99.90;;;;;;4949117;28;20048;-41
2022/06/04 00:36:43;;;;;;;15.43;6.70;;;10.90;99.90;;;;;;4936181;28;20414;-41
2022/06/04 00:39:09;;;;;;;16.60;7.25;;;10.90;99.90;;;;;;4949703;28;20450;-41
2022/06/04 00:41:45;;;;;;;17.95;6.90;;;10.90;99.90;;;;;;4949804;28;20196;-41
2022/06/04 00:44:10;;;;;;;15.50;6.32;;;10.80;99.90;;;;;;4947549;28;20506;-41
2022/06/04 00:46:39;;;;;;;12.55;6.10;;;10.90;99.90;;;;;;4936371;28;20046;-42
2022/06/04 00:49:06;;;;;;;14.15;6.75;;;10.80;99.90;;;;;;4946950;28;20146;-41
2022/06/04 00:51:31;;;;;;;17.10;6.40;;;10.70;99.90;;;;;;4949921;28;20054;-41
2022/06/04 00:53:58;;;;;;;16.58;6.57;;;10.80;99.90;;;;;;4948910;28;20494;-41
2022/06/04 00:56:44;;;;;;;13.20;6.50;;;10.80;99.90;;;;;;4937658;28;20083;-42
2022/06/04 00:59:34;;;;;;;10.77;6.68;;;10.80;99.90;;;;;;4948399;28;20055;-41
2022/06/04 01:02:19;;;;;;;11.07;6.10;;;10.80;99.90;;;;;;4942934;28;20063;-41
2022/06/04 01:05:16;;;;;;;14.38;5.65;;;10.70;99.90;;;;;;4956628;28;20059;-41
2022/06/04 01:08:00;;;;;;;10.48;6.03;;;10.70;99.90;;;;;;4952943;28;20043;-41
2022/06/04 01:11:05;;;;;;;11.48;5.63;;;10.70;99.90;;;;;;4953069;29;20059;-41
2022/06/04 01:13:53;;;;;;;15.18;6.35;;;10.70;99.90;;;;;;4950709;28;20070;-41
2022/06/04 01:16:43;;;;;;;12.45;6.03;;;10.70;99.90;;;;;;4949578;28;20062;-41
2022/06/04 01:19:17;;;;;;;12.90;5.90;;;10.70;99.90;;;;;;4971160;28;20054;-42
2022/06/04 01:21:49;;;;;;;11.50;5.78;;;10.70;99.90;;;;;;4972336;28;20147;-41
2022/06/04 01:24:17;;;;;;;9.77;5.78;;;10.60;99.90;;;;;;4971185;28;20606;-41
2022/06/04 01:27:07;;;;;;;13.82;5.68;;;10.60;99.90;;;;;;4946570;28;20137;-41
2022/06/04 01:29:44;;;;;;;11.93;5.53;;;10.60;99.90;;;;;;4951531;28;20411;-41
2022/06/04 01:32:19;;;;;;;12.43;5.47;;;10.60;99.90;;;;;;4957649;28;20539;-42
2022/06/04 01:35:01;;;;;;;12.63;5.38;;;10.60;99.90;;;;;;4961762;28;20051;-41
2022/06/04 01:37:38;;;;;;;9.27;5.28;;;10.60;99.90;;;;;;4935616;29;20558;-42
2022/06/04 01:42:53;;;;;;;15.43;5.90;;;10.50;99.90;;;;;;4942470;28;20076;-41
2022/06/04 01:45:22;;;;;;;12.13;5.25;;;10.50;99.90;;;;;;4950457;28;20051;-41
2022/06/04 01:47:51;;;;;;;12.07;5.78;;;10.50;99.90;;;;;;4935808;28;20568;-42
2022/06/04 01:50:25;;;;;;;9.82;5.63;;;10.50;99.90;;;;;;4952194;28;20519;-41
2022/06/04 01:52:53;;;;;;;10.30;5.65;;;10.50;99.90;;;;;;4950157;28;20502;-42
2022/06/04 01:55:22;;;;;;;8.82;5.30;;;10.50;99.90;;;;;;4952126;28;20138;-41
2022/06/04 01:58:00;;;;;;;11.93;5.28;;;10.40;99.90;;;;;;4936287;28;20070;-42
2022/06/04 02:00:30;;;;;;;11.20;5.57;;;10.50;99.90;;;;;;4951045;28;20066;-41
2022/06/04 02:03:09;;;;;;;10.80;6.35;;;10.50;99.90;;;;;;4949882;28;20083;-41
2022/06/04 02:05:44;;;;;;;9.32;5.72;;;10.50;99.90;;;;;;4964409;28;20053;-41
2022/06/04 02:08:15;;;;;;;11.32;5.82;;;10.40;99.90;;;;;;4948560;28;20051;-41
2022/06/04 02:11:04;;;;;;;12.35;6.15;;;10.40;99.90;;;;;;4952193;28;20062;-41
2022/06/04 02:13:30;;;;;;;9.35;6.28;;;10.40;99.90;;;;;;4964615;28;20047;-41
2022/06/04 02:16:23;;;;;;;12.07;6.32;;;10.40;99.90;;;;;;4957244;28;20410;-41
2022/06/04 02:18:50;;;;;;;8.32;5.65;;;10.40;99.90;;;;;;4948253;28;20048;-41
2022/06/04 02:21:17;;;;;;;10.23;6.38;;;10.40;99.90;;;;;;4951696;28;20051;-41
2022/06/04 02:23:44;;;;;;;13.40;6.18;;;10.40;99.90;;;;;;4951088;28;20565;-41
2022/06/04 02:26:10;;;;;;;11.35;6.07;;;10.40;99.90;;;;;;4944559;28;20048;-41
2022/06/04 02:28:36;;;;;;;12.38;6.40;;;10.40;99.90;;;;;;4943534;28;20055;-41
2022/06/04 02:31:04;;;;;;;10.65;6.47;;;10.30;99.90;;;;;;4952093;29;20042;-41
2022/06/04 02:33:49;;;;;;;10.80;5.70;;;10.30;99.90;;;;;;4950728;28;20057;-41
2022/06/04 02:36:24;;;;;;;11.10;5.30;;;10.30;99.90;;;;;;4944113;28;20488;-41
2022/06/04 02:39:14;;;;;;;11.68;5.65;;;10.30;99.90;;;;;;4947088;29;20062;-42
2022/06/04 02:41:49;;;;;;;14.57;5.00;;;10.30;99.90;;;;;;4948630;28;20054;-41
2022/06/04 02:44:28;;;;;;;10.60;5.70;;;10.30;99.90;;;;;;4958641;28;20617;-41
2022/06/04 02:47:03;;;;;;;10.55;5.40;;;10.30;99.90;;;;;;4955637;28;20051;-41
2022/06/04 02:49:50;;;;;;;8.25;5.32;;;10.20;99.90;;;;;;4970388;28;20490;-41
2022/06/04 02:52:18;;;;;;;6.28;4.80;;;10.30;99.90;;;;;;4940049;28;20053;-42
2022/06/04 02:55:07;;;;;;;8.82;4.72;;;10.20;99.90;;;;;;4951706;28;20087;-41
2022/06/04 02:57:36;;;;;;;11.77;5.57;;;10.20;99.90;;;;;;4936952;28;20035;-42
2022/06/04 03:00:04;;;;;;;11.00;5.10;;;10.20;99.90;;;;;;4974151;28;20047;-42
2022/06/04 03:02:33;;;;;;;7.25;4.53;;;10.20;99.90;;;;;;4973507;28;20383;-42
2022/06/04 03:05:10;;;;;;;7.78;4.85;;;10.20;99.90;;;;;;4960589;28;20090;-42
2022/06/04 03:07:39;;;;;;;10.52;5.10;;;10.20;99.90;;;;;;4939226;28;20133;-41
2022/06/04 03:10:13;;;;;;;9.00;4.80;;;10.10;99.90;;;;;;4964234;28;20121;-41
2022/06/04 03:12:38;;;;;;;16.67;5.25;;;10.10;99.90;;;;;;4973536;28;20118;-42
2022/06/04 03:15:04;;;;;;;8.80;5.22;;;10.10;99.90;;;;;;4966971;28;20138;-41
2022/06/04 03:17:30;;;;;;;10.57;5.40;;;10.10;99.90;;;;;;4938183;28;20134;-42
2022/06/04 03:19:56;;;;;;;9.30;5.45;;;10.10;99.90;;;;;;4955419;28;20138;-41
2022/06/04 03:22:21;;;;;;;9.68;5.10;;;10.10;99.90;;;;;;4971573;28;20071;-41
2022/06/04 03:24:47;;;;;;;9.80;5.30;;;10.10;99.90;;;;;;4974385;28;20556;-42
2022/06/04 03:27:13;;;;;;;12.02;5.40;;;10.00;99.90;;;;;;4942795;28;20252;-42
2022/06/04 03:29:38;;;;;;;8.98;4.97;;;10.10;99.90;;;;;;4954877;29;20079;-41
2022/06/04 03:32:05;;;;;;;10.70;5.25;;;10.10;99.90;;;;;;4954951;29;20098;-41
2022/06/04 03:34:30;;;;;;;9.82;5.45;;;10.10;99.90;;;;;;4952565;28;20058;-41
2022/06/04 03:36:56;;;;;;;7.32;4.57;;;10.10;99.90;;;;;;4939798;28;20063;-41
2022/06/04 03:39:21;;;;;;;8.32;5.15;;;10.10;99.90;;;;;;4954780;28;20039;-41
2022/06/04 03:41:47;;;;;;;6.75;5.32;;;10.00;99.90;;;;;;4952121;28;20049;-41
2022/06/04 03:44:13;;;;;;;11.65;4.97;;;10.00;99.90;;;;;;4943311;28;20043;-41
2022/06/04 03:46:38;;;;;;;11.00;5.23;;;10.00;99.90;;;;;;4940682;28;20082;-41
2022/06/04 03:49:05;;;;;;;8.75;5.50;;;10.00;99.90;;;;;;4952232;28;20499;-42
2022/06/04 03:51:30;;;;;;;10.10;5.43;;;10.00;99.90;;;;;;4954488;29;20083;-41
2022/06/04 03:53:57;;;;;;;9.27;5.00;;;10.00;99.90;;;;;;4953459;28;20051;-41
2022/06/04 03:56:24;;;;;;;8.00;4.95;;;10.00;99.90;;;;;;4957963;28;20075;-41
2022/06/04 03:58:50;;;;;;;9.07;5.20;;;10.00;99.90;;;;;;4969773;28;20054;-41
2022/06/04 04:01:24;;;;;;;11.57;5.47;;;10.00;99.90;;;;;;4973343;28;20104;-41
2022/06/04 04:03:51;;;;;;;7.80;4.60;;;10.00;99.90;;;;;;4968057;28;20055;-41
2022/06/04 04:06:23;;;;;;;10.00;5.30;;;10.00;99.90;;;;;;4943487;29;20693;-41
2022/06/04 04:08:49;;;;;;;9.73;4.85;;;10.00;99.90;;;;;;4948225;28;20055;-41
2022/06/04 04:11:19;;;;;;;9.07;5.25;;;10.00;99.90;;;;;;4972661;28;20449;-41
2022/06/04 04:13:45;;;;;;;7.93;5.45;;;10.10;99.90;;;;;;4971334;28;20047;-41
2022/06/04 04:16:12;;;;;;;9.82;5.47;;;10.20;99.90;;;;;;4949235;28;20047;-41
2022/06/04 04:18:38;;;;;;;11.73;5.25;;;10.00;99.90;;;;;;4957708;28;20510;-41
2022/06/04 04:21:06;;;;;;;12.65;5.60;;;10.10;99.90;;;;;;4962050;28;20050;-42
2022/06/04 04:23:33;;;;;;;10.18;6.00;;;10.10;99.90;;;;;;4967330;28;20054;-41
2022/06/04 04:25:59;;;;;;;10.07;5.43;;;10.10;99.90;;;;;;4968179;28;20075;-41
2022/06/04 04:28:25;;;;;;;10.98;5.70;;;10.10;99.90;;;;;;4938516;28;20058;-41
2022/06/04 04:30:51;;;;;;;8.45;5.03;;;10.10;99.90;;;;;;4965614;28;20051;-41
2022/06/04 04:33:16;;;;;;;9.50;5.60;;;10.20;99.90;;;;;;4952750;28;20058;-41
2022/06/04 04:35:48;;;;;;;9.68;5.28;;;10.10;99.90;;;;;;4949348;28;20056;-42
2022/06/04 04:38:15;;;;;;;10.82;5.15;;;10.20;99.90;;;;;;4923362;29;20051;-41
2022/06/04 04:40:42;;;;;;;9.77;5.70;;;10.20;99.90;;;;;;4944550;29;20384;-41
2022/06/04 04:43:08;;;;;;;11.85;5.50;;;10.20;99.90;;;;;;4942464;28;20051;-41
2022/06/04 04:45:34;;;;;;;7.38;5.55;;;10.30;99.90;;;;;;4949305;28;20039;-41
2022/06/04 04:48:00;;;;;;;10.82;5.38;;;10.30;99.90;;;;;;4922860;29;20051;-41
2022/06/04 04:50:33;;;;;;;10.02;5.22;;;10.40;99.90;;;;;;4953541;28;20047;-41
2022/06/04 04:53:01;;;;;;;10.80;5.82;;;10.40;99.90;;;;;;4953721;28;20407;-41
2022/06/04 04:55:27;;;;;;;8.40;5.82;;;10.50;99.90;;;;;;4972952;28;20051;-41
2022/06/04 04:57:53;;;;;;;7.60;5.22;;;10.50;99.90;;;;;;4955998;28;20410;-41
2022/06/04 05:00:19;;;;;;;11.68;5.53;;;10.70;99.90;;;;;;4972544;28;20042;-42
2022/06/04 05:02:45;;;;;;;10.82;5.60;;;10.70;99.90;;;;;;4969307;28;20122;-42
2022/06/04 05:05:11;;;;;;;9.35;5.25;;;10.80;99.90;;;;;;4961958;28;20059;-41
2022/06/04 05:07:38;;;;;;;9.05;5.75;;;11.00;99.90;;;;;;4953889;28;20066;-42
2022/06/04 05:10:05;;;;;;;9.10;5.22;;;11.10;99.90;;;;;;4951691;29;20699;-41
2022/06/04 05:12:31;;;;;;;8.40;5.68;;;11.20;99.90;;;;;;4951692;28;20101;-42
2022/06/04 05:14:57;;;;;;;8.35;5.78;;;11.30;99.90;;;;;;4953136;29;20050;-41
2022/06/04 05:17:22;;;;;;;10.45;5.38;;;11.40;99.90;;;;;;4936052;28;20059;-42
2022/06/04 05:19:48;;;;;;;9.05;5.40;;;11.50;99.90;;;;;;4953186;29;20039;-41
2022/06/04 05:22:14;;;;;;;10.30;5.80;;;11.70;99.90;;;;;;4951223;28;20047;-42
2022/06/04 05:24:39;;;;;;;10.43;6.40;;;11.80;99.90;;;;;;4950753;28;20050;-41
2022/06/04 05:27:06;;;;;;;10.50;5.22;;;11.90;99.90;;;;;;4929302;28;20591;-42
2022/06/04 05:29:33;;;;;;;9.68;5.88;;;12.00;99.90;;;;;;4940251;29;20043;-41
2022/06/04 05:31:59;;;;;;;10.32;5.60;;;12.10;99.90;;;;;;4944521;28;20065;-42
2022/06/04 05:34:26;;;;;;;8.98;5.00;;;12.20;99.90;;;;;;4947340;28;20050;-41
2022/06/04 05:36:55;;;;;;;11.82;5.85;;;12.30;99.90;;;;;;4926920;29;20043;-41
2022/06/04 05:39:22;;;;;;;10.20;5.53;;;12.50;99.90;;;;;;4946702;29;20043;-42
2022/06/04 05:41:49;;;;;;;8.20;5.72;;;12.50;99.90;;;;;;4946109;28;20545;-41
2022/06/04 05:44:15;;;;;;;8.45;5.53;;;12.70;99.90;;;;;;4948458;28;20130;-41
2022/06/04 05:46:42;;;;;;;11.00;6.03;;;12.80;99.90;;;;;;4934827;29;20059;-41
2022/06/04 05:49:11;;;;;;;7.25;5.63;;;12.90;99.90;;;;;;4939436;28;20502;-41
2022/06/04 05:51:37;;;;;;;8.38;4.90;;;13.10;99.90;;;;;;4936118;29;20585;-41
2022/06/04 05:54:04;;;;;;;7.35;4.35;;;13.30;99.90;;;;;;4932261;28;20292;-41
2022/06/04 05:56:32;;;;;;;8.48;4.20;;;13.40;99.90;;;;;;4925202;29;20106;-41
2022/06/04 05:58:59;;;;;;;6.85;3.92;;;13.50;99.90;;;;;;4940049;28;20044;-42
2022/06/04 06:01:27;;;;;;;7.18;4.10;;;13.60;99.90;;;;;;4941071;28;20070;-41
2022/06/04 06:03:54;;;;;;;6.50;4.03;;;13.70;99.90;;;;;;4940057;28;20492;-41
2022/06/04 06:06:24;;;;;;;9.27;4.10;;;13.70;99.90;;;;;;4929920;29;20414;-42
2022/06/04 06:08:52;;;;;;;5.30;3.47;;;13.90;99.90;;;;;;4938983;28;20102;-41
2022/06/04 06:11:18;;;;;;;8.35;3.72;;;14.00;99.90;;;;;;4945387;29;20063;-41
2022/06/04 06:13:46;;;;;;;5.10;4.10;;;14.10;99.90;;;;;;4947085;28;20529;-41
2022/06/04 06:16:16;;;;;;;7.03;4.10;;;14.20;99.90;;;;;;4939797;28;20507;-41
2022/06/04 06:18:42;;;;;;;5.53;4.18;;;14.30;99.90;;;;;;4931542;28;20052;-41
2022/06/04 06:21:10;;;;;;;7.47;3.42;;;14.40;99.90;;;;;;4938712;29;20040;-41
2022/06/04 06:23:37;;;;;;;6.07;4.03;;;14.50;99.90;;;;;;4934317;29;20083;-41
2022/06/04 06:26:09;;;;;;;9.68;3.90;;;14.50;99.90;;;;;;4939847;29;20051;-41
2022/06/04 06:28:35;;;;;;;7.00;3.80;;;14.60;99.90;;;;;;4929709;28;20044;-42
2022/06/04 06:31:02;;;;;;;6.35;4.13;;;14.60;99.90;;;;;;4940221;28;20410;-41
2022/06/04 06:33:28;;;;;;;7.40;4.30;;;14.60;99.90;;;;;;4949444;28;20082;-41
2022/06/04 06:35:59;;;;;;;5.60;4.40;;;14.70;99.90;;;;;;4950422;28;20428;-41
2022/06/04 06:38:25;;;;;;;8.00;4.25;;;14.80;99.90;;;;;;4927469;28;20047;-41
2022/06/04 06:40:53;;;;;;;5.72;4.22;;;14.80;99.90;;;;;;4951498;28;20043;-41
2022/06/04 06:43:19;;;;;;;6.53;4.20;;;14.90;99.90;;;;;;4943020;28;20060;-41
2022/06/04 06:45:45;;;;;;;8.60;4.38;;;15.00;99.90;;;;;;4950611;28;20063;-41
2022/06/04 06:48:11;;;;;;;6.20;4.00;;;15.10;99.90;;;;;;4933551;28;20066;-41
2022/06/04 06:50:38;;;;;;;7.40;3.67;;;15.20;99.90;;;;;;4949668;28;20047;-41
2022/06/04 06:53:04;;;;;;;5.65;4.00;;;15.20;99.90;;;;;;4948973;28;20043;-42
2022/06/04 06:55:30;;;;;;;5.60;4.40;;;15.20;99.90;;;;;;4945882;29;20134;-41
2022/06/04 06:57:56;;;;;;;5.07;3.63;;;15.20;99.90;;;;;;4922578;28;20074;-41
2022/06/04 07:00:22;;;;;;;7.93;4.00;;;15.30;99.90;;;;;;4936753;29;20079;-41
2022/06/04 07:02:48;;;;;;;6.53;3.70;;;15.30;99.90;;;;;;4940017;28;20044;-41
2022/06/04 07:05:13;;;;;;;7.03;4.00;;;15.30;99.90;;;;;;4945708;28;20467;-41
2022/06/04 07:07:40;;;;;;;5.63;3.88;;;15.40;99.90;;;;;;4931784;28;20067;-41
2022/06/04 07:10:06;;;;;;;7.35;3.72;;;15.40;99.90;;;;;;4945563;28;20130;-42
2022/06/04 07:12:32;;;;;;;8.88;3.75;;;15.50;99.90;;;;;;4944653;28;20399;-42
2022/06/04 07:14:59;;;;;;;5.93;3.42;;;15.60;99.90;;;;;;4945542;29;20047;-41
2022/06/04 07:17:24;;;;;;;4.05;3.47;;;15.60;99.90;;;;;;4937197;28;20183;-41
2022/06/04 07:19:50;;;;;;;9.60;3.90;;;15.70;99.90;;;;;;4950276;28;20218;-41
2022/06/04 07:22:16;;;;;;;4.50;3.30;;;15.70;99.90;;;;;;4941325;28;20051;-41
2022/06/04 07:24:42;;;;;;;5.38;3.50;;;15.70;99.90;;;;;;4943083;29;20188;-41
2022/06/04 07:27:08;;;;;;;6.13;3.65;;;15.70;99.90;;;;;;4931861;28;20051;-41
2022/06/04 07:29:36;;;;;;;5.57;3.10;;;15.80;99.90;;;;;;4945035;28;20450;-41
2022/06/04 07:32:03;;;;;;;5.40;3.80;;;15.80;99.90;;;;;;4942823;29;20446;-41
2022/06/04 07:34:29;;;;;;;6.95;3.42;;;15.80;99.90;;;;;;4950975;28;20048;-41
2022/06/04 07:36:55;;;;;;;5.25;3.40;;;15.80;99.90;;;;;;4930044;29;20597;-41
2022/06/04 07:39:21;;;;;;;7.63;3.55;;;15.70;99.90;;;;;;4946029;28;20119;-41
2022/06/04 07:41:51;;;;;;;7.07;3.83;;;15.70;99.90;;;;;;4946711;28;20048;-41
2022/06/04 07:44:18;;;;;;;6.78;3.13;;;15.70;99.90;;;;;;4947109;28;20055;-41
2022/06/04 07:46:45;;;;;;;4.68;3.13;;;15.70;99.90;;;;;;4936201;29;20043;-42
2022/06/04 07:49:12;;;;;;;6.68;4.00;;;15.70;99.90;;;;;;4951288;28;20055;-41
2022/06/04 07:51:39;;;;;;;7.30;3.40;;;15.80;99.90;;;;;;4944034;29;20043;-41
2022/06/04 07:54:08;;;;;;;7.53;3.90;;;15.80;99.90;;;;;;4953209;28;20044;-40
2022/06/04 07:56:35;;;;;;;6.03;3.75;;;15.80;99.90;;;;;;4929900;28;20051;-41
2022/06/04 07:59:00;;;;;;;5.97;3.95;;;15.80;99.90;;;;;;4948915;28;20051;-41
2022/06/04 08:01:28;;;;;;;7.15;3.72;;;15.90;99.90;;;;;;4953013;29;20190;-41
2022/06/04 08:03:54;;;;;;;4.35;3.58;;;15.90;99.90;;;;;;4949938;28;20082;-41
2022/06/04 08:06:21;;;;;;;5.60;4.15;;;15.90;99.90;;;;;;4952538;28;20054;-41
2022/06/04 08:08:50;;;;;;;5.63;3.63;;;15.90;99.90;;;;;;4936411;28;20048;-43
2022/06/04 08:11:31;;;;;;;4.68;3.60;;;15.90;99.90;;;;;;4941878;29;20062;-41
2022/06/04 08:14:09;;;;;;;5.68;3.80;;;15.90;99.90;;;;;;4953036;28;20055;-41
2022/06/04 08:16:37;;;;;;;6.32;3.75;;;15.90;99.90;;;;;;4930224;29;20518;-41
2022/06/04 08:19:04;;;;;;;7.57;3.60;;;15.80;99.90;;;;;;4951464;28;20117;-41
2022/06/04 08:21:31;;;;;;;6.10;3.92;;;15.80;99.90;;;;;;4953427;28;20032;-41
2022/06/04 08:23:57;;;;;;;5.88;3.85;;;15.80;99.90;;;;;;4954037;28;20145;-41
2022/06/04 08:26:22;;;;;;;6.75;3.97;;;15.80;99.90;;;;;;4950771;28;20149;-41
2022/06/04 08:28:48;;;;;;;6.93;3.85;;;15.70;99.90;;;;;;4959051;28;20126;-41
2022/06/04 08:31:15;;;;;;;6.85;3.35;;;15.70;99.90;;;;;;4963494;28;20043;-41
2022/06/04 08:33:41;;;;;;;6.80;3.67;;;15.70;99.90;;;;;;4960892;28;20062;-41
2022/06/04 08:36:09;;;;;;;6.63;3.78;;;15.80;99.90;;;;;;4960270;28;20393;-41
2022/06/04 08:38:35;;;;;;;6.30;4.15;;;15.80;99.90;;;;;;4951921;28;20086;-41
2022/06/04 08:41:04;;;;;;;6.35;3.83;;;15.90;99.90;;;;;;4961615;28;20043;-40
2022/06/04 08:43:52;;;;;;;6.75;3.50;;;15.90;99.90;;;;;;4959630;28;20441;-41
2022/06/04 08:46:23;;;;;;;6.75;3.90;;;15.90;99.90;;;;;;4952187;28;20538;-41
2022/06/04 08:48:50;;;;;;;5.30;3.40;;;15.90;99.90;;;;;;4958917;28;20098;-41
2022/06/04 08:51:25;;;;;;;5.63;3.15;;;15.90;99.90;;;;;;4960214;28;20046;-41
2022/06/04 08:53:55;;;;;;;4.80;3.17;;;15.90;99.90;;;;;;4960364;28;20058;-41
2022/06/04 08:59:40;;;;;;;4.70;3.22;;;15.90;99.90;;;;;;4960973;28;20043;-41
2022/06/04 09:02:16;;;;;;;8.63;3.30;;;15.90;99.90;;;;;;4959619;28;20549;-41
2022/06/04 09:05:04;;;;;;;5.78;3.45;;;15.90;99.90;;;;;;4963631;28;20051;-41
2022/06/04 09:07:37;;;;;;;5.50;3.13;;;16.00;99.90;;;;;;4943347;28;20050;-41
2022/06/04 09:10:36;;;;;;;5.40;2.67;;;16.00;99.90;;;;;;4958914;28;20039;-41
2022/06/04 09:13:09;;;;;;;4.40;2.80;;;16.00;99.90;;;;;;4960433;28;20050;-41
2022/06/04 09:15:43;;;;;;;5.35;2.80;;;16.00;99.90;;;;;;4961881;28;20059;-41
2022/06/04 09:18:18;;;;;;;5.38;3.72;;;16.10;99.90;;;;;;4944115;28;20047;-41
2022/06/04 09:20:47;;;;;;;7.30;3.78;;;16.10;99.90;;;;;;4952697;28;20050;-41
2022/06/04 09:23:29;;;;;;;6.90;3.47;;;16.10;99.90;;;;;;4924219;28;20058;-41
2022/06/04 09:26:15;;;;;;;6.07;3.30;;;16.10;99.90;;;;;;4932361;28;20043;-40
2022/06/04 09:28:55;;;;;;;4.60;2.95;;;16.10;99.90;;;;;;4931483;28;20055;-41
2022/06/04 09:31:50;;;;;;;6.25;2.75;;;16.20;99.90;;;;;;4946187;29;20047;-41
2022/06/04 09:34:23;;;;;;;5.38;3.45;;;16.20;99.90;;;;;;4943129;28;20056;-41
2022/06/04 09:36:50;;;;;;;6.82;3.30;;;16.20;99.90;;;;;;4933091;28;20043;-41
2022/06/04 09:39:21;;;;;;;5.88;3.30;;;16.20;99.90;;;;;;4945896;28;20054;-41
2022/06/04 09:41:56;;;;;;;4.17;3.07;;;16.20;99.90;;;;;;4940239;29;20058;-41
2022/06/04 09:44:23;;;;;;;5.07;3.35;;;16.30;99.90;;;;;;4936974;28;21520;-41
2022/06/04 09:46:57;;;;;;;4.40;2.88;;;16.30;99.90;;;;;;4894310;28;20058;-41
2022/06/04 09:49:36;;;;;;;3.90;2.70;;;16.30;99.90;;;;;;4940550;28;20420;-41
2022/06/04 09:52:36;;;;;;;6.50;2.78;;;16.30;99.90;;;;;;4938488;29;20443;-41
2022/06/04 09:55:13;;;;;;;5.75;2.97;;;16.30;99.90;;;;;;4937471;28;20047;-41
2022/06/04 09:57:39;;;;;;;5.03;3.20;;;16.30;99.90;;;;;;4930803;28;20451;-41
2022/06/04 10:00:20;;;;;;;3.83;2.90;;;16.20;99.90;;;;;;4937187;28;20055;-41
2022/06/04 10:03:13;;;;;;;6.23;3.10;;;16.20;99.90;;;;;;4939670;28;20051;-41
2022/06/04 10:05:53;;;;;;;6.13;3.30;;;16.30;99.90;;;;;;4959664;28;20059;-41
2022/06/04 10:08:27;;;;;;;5.72;2.75;;;16.30;99.90;;;;;;4925242;28;20377;-41
2022/06/04 10:11:05;;;;;;;7.40;3.20;;;16.30;99.90;;;;;;4946002;29;20054;-41
2022/06/04 10:13:42;;;;;;;5.10;3.28;;;16.30;99.90;;;;;;4956224;28;20574;-41
2022/06/04 10:16:17;;;;;;;6.65;2.65;;;16.30;99.90;;;;;;4937497;28;20098;-41
2022/06/04 10:18:53;;;;;;;7.75;2.70;;;16.30;99.90;;;;;;4940013;28;20063;-41
2022/06/04 10:21:23;;;;;;;6.05;2.95;;;16.30;99.90;;;;;;4943159;29;20146;-41
2022/06/04 10:23:54;;;;;;;7.13;2.95;;;16.30;99.90;;;;;;4940731;28;20130;-41
2022/06/04 10:26:42;;;;;;;6.45;2.70;;;16.30;99.90;;;;;;4929068;28;20047;-41
2022/06/04 10:29:29;;;;;;;4.78;2.85;;;16.30;99.90;;;;;;4938995;28;20051;-41
2022/06/04 10:32:16;;;;;;;5.13;3.35;;;16.40;99.90;;;;;;4937270;29;20051;-41
2022/06/04 10:34:45;;;;;;;8.88;2.90;;;16.40;99.90;;;;;;4943351;28;20079;-41
2022/06/04 10:37:26;;;;;;;6.72;3.00;;;16.40;99.90;;;;;;4928491;28;20047;-41
2022/06/04 10:40:05;;;;;;;7.78;3.20;;;16.40;99.90;;;;;;4946449;29;20422;-41
2022/06/04 10:42:49;;;;;;;4.10;3.15;;;16.40;99.90;;;;;;4936095;28;20044;-41
2022/06/04 10:45:53;;;;;;;6.88;2.67;;;16.50;99.90;;;;;;4939889;28;20055;-41
2022/06/04 10:48:39;;;;;;;7.18;3.38;;;16.50;99.90;;;;;;4919572;28;20055;-40
2022/06/04 10:51:27;;;;;;;5.22;3.15;;;16.50;99.90;;;;;;4931951;29;20058;-41
2022/06/04 10:54:14;;;;;;;5.20;3.30;;;16.50;99.90;;;;;;4943456;28;20063;-40
2022/06/04 10:56:49;;;;;;;7.35;3.53;;;16.50;99.90;;;;;;4931524;29;20051;-41
2022/06/04 10:59:50;;;;;;;6.75;3.28;;;16.50;99.90;;;;;;4945220;28;20170;-41
2022/06/04 11:02:37;;;;;;;5.05;2.75;;;16.60;99.90;;;;;;4941668;28;20466;-41
2022/06/04 11:05:12;;;;;;;4.55;3.10;;;16.60;99.90;;;;;;4944266;29;20090;-41
2022/06/04 11:08:04;;;;;;;6.95;3.20;;;16.60;99.90;;;;;;4926727;28;20062;-41
2022/06/04 11:10:45;;;;;;;5.55;3.25;;;16.70;99.90;;;;;;4944764;28;20138;-41
2022/06/04 11:13:14;;;;;;;;;;;16.80;99.90;;;;;;4941001;28;20054;-41
2022/06/04 11:16:04;;;;;;;5.18;3.22;;;16.80;99.90;;;;;;4939289;29;19926;-41
2022/06/04 11:18:48;;;;;;;7.32;3.45;;;16.80;99.90;;;;;;4923493;28;20109;-41
2022/06/04 11:21:23;;;;;;;6.68;3.15;;;16.90;99.90;;;;;;4941732;29;20047;-41
2022/06/04 11:24:02;;;;;;;7.00;3.53;;;17.00;99.90;;;;;;4951587;28;20404;-41
2022/06/04 11:26:37;;;;;;;7.55;3.45;;;17.00;99.90;;;;;;4940180;28;20564;-41
2022/06/04 11:29:04;;;;;;;7.32;3.70;;;17.10;99.90;;;;;;4949121;28;20075;-41
2022/06/04 11:31:43;;;;;;;4.60;3.05;;;17.20;99.90;;;;;;4950698;29;20051;-41
2022/06/04 11:34:40;;;;;;;8.50;3.47;;;17.20;99.90;;;;;;4951033;28;20086;-41
2022/06/04 11:37:34;;;;;;;8.85;3.53;;;17.30;99.90;;;;;;4936512;28;20118;-40
2022/06/04 11:40:25;;;;;;;5.80;3.20;;;17.40;99.90;;;;;;4952604;29;20062;-41
2022/06/04 11:43:00;;;;;;;6.13;3.22;;;17.50;99.90;;;;;;4952925;28;20075;-41
2022/06/04 11:45:39;;;;;;;9.48;3.47;;;17.60;99.90;;;;;;4959987;28;20039;-41
2022/06/04 11:48:22;;;;;;;6.05;3.50;;;17.60;99.90;;;;;;4944339;28;20419;-41
2022/06/04 11:51:12;;;;;;;5.18;3.53;;;17.80;99.90;;;;;;4961400;28;20051;-41
2022/06/04 11:54:18;;;;;;;5.90;3.45;;;17.90;99.90;;;;;;4964529;28;20046;-41
2022/06/04 11:56:57;;;;;;;6.57;3.72;;;17.90;99.90;;;;;;4941961;28;20146;-41
2022/06/04 11:59:41;;;;;;;8.35;3.72;;;17.90;99.90;;;;;;4952968;28;20512;-41
2022/06/04 12:02:22;;;;;;;5.57;3.72;;;18.00;99.90;;;;;;4951072;28;20055;-41
2022/06/04 12:05:02;;;;;;;7.57;3.95;;;18.10;99.90;;;;;;4958458;28;20129;-41
2022/06/04 12:07:42;;;;;;;8.30;3.70;;;18.20;99.90;;;;;;4955393;28;20053;-42
2022/06/04 12:10:28;;;;;;;8.50;3.33;;;18.40;99.90;;;;;;4953581;28;20039;-41
2022/06/04 12:13:05;;;;;;;5.72;3.95;;;18.30;99.90;;;;;;4952709;28;20403;-41
2022/06/04 12:15:44;;;;;;;8.15;3.75;;;18.30;99.90;;;;;;4936801;28;20490;-41
2022/06/04 12:18:27;;;;;;;8.70;3.92;;;18.50;99.90;;;;;;4956200;28;20138;-41
2022/06/04 12:24:20;;;;;;;7.93;3.70;;;18.60;99.90;;;;;;4968311;28;20049;-41
2022/06/04 12:26:48;;;;;;;6.85;3.63;;;18.70;99.90;;;;;;4944349;28;20586;-41
2022/06/04 12:29:31;;;;;;;6.60;3.53;;;18.80;99.90;;;;;;4950924;28;20047;-41
2022/06/04 12:32:18;;;;;;;6.65;3.78;;;18.80;99.90;;;;;;4952455;28;20059;-41
2022/06/04 12:34:45;;;;;;;6.05;3.45;;;18.80;99.90;;;;;;4952466;28;20051;-41
2022/06/04 12:37:36;;;;;;;6.30;3.30;;;18.80;99.90;;;;;;4937206;28;20062;-41
2022/06/04 12:40:37;;;;;;;5.30;3.95;;;18.90;99.90;;;;;;4953132;29;20051;-41
2022/06/04 12:43:30;;;;;;;7.82;3.35;;;18.90;99.90;;;;;;4988086;28;20129;-41
2022/06/04 12:46:15;;;;;;;8.02;4.22;;;18.80;99.90;;;;;;4939177;29;20059;-41
2022/06/04 12:48:53;;;;;;;6.82;3.20;;;19.00;99.90;;;;;;4947290;28;20043;-41
2022/06/04 12:51:40;;;;;;;6.70;3.20;;;19.00;99.90;;;;;;4952700;28;20075;-41
2022/06/04 12:54:29;;;;;;;8.85;3.00;;;19.10;99.90;;;;;;4951798;28;20181;-41
2022/06/04 12:57:12;;;;;;;8.38;3.10;;;19.20;99.90;;;;;;4943376;28;20129;-41
2022/06/04 12:59:42;;;;;;;6.13;3.17;;;19.30;99.90;;;;;;4970030;28;20051;-41
2022/06/04 13:02:55;;;;;;;4.85;2.47;;;19.30;99.90;;;;;;4970791;28;20058;-41
2022/06/04 13:05:25;;;;;;;91.05;10.85;;;19.30;99.90;;;;;;4971608;28;20050;-41
2022/06/04 13:07:57;;;;;;;16.45;4.47;;;19.30;99.90;;;;;;4937496;28;20529;-40
2022/06/04 13:10:36;;;;;;;5.55;3.25;;;19.30;99.90;;;;;;4951128;28;20130;-41
2022/06/04 13:13:41;;;;;;;5.68;3.20;;;19.30;99.90;;;;;;4951467;28;20055;-41
2022/06/04 13:16:19;;;;;;;10.05;3.40;;;19.30;99.90;;;;;;4947290;28;20047;-41
2022/06/04 13:19:08;;;;;;;6.90;3.08;;;19.20;99.90;;;;;;4955096;28;20087;-41
2022/06/04 13:21:37;;;;;;;7.90;3.70;;;19.20;99.90;;;;;;4962405;28;20053;-41
2022/06/04 13:24:17;;;;;;;5.65;3.72;;;19.10;99.90;;;;;;4960348;28;20134;-41
2022/06/04 13:27:02;;;;;;;7.15;3.63;;;19.10;99.90;;;;;;4945955;28;20402;-41
2022/06/04 13:29:31;;;;;;;8.40;3.63;;;19.20;99.90;;;;;;4941578;28;20118;-41